Time;durP1;ratioP1;P1;durP2;ratioP2;P2;SDS_P1;SDS_P2;PMS_P1;PMS_P2;Temp;Humidity;BMP_temperature;BMP_pressure;BME280_temperature;BME280_humidity;BME280_pressure;Samples;Min_cycle;Max_cycle;Signal;HPM_P1;HPM_P2
2022/12/18 00:01:32;;;;;;;61.65;28.80;;;-6.50;69.30;;;;;;5133909;27;20213;-64
2022/12/18 00:04:02;;;;;;;58.47;29.23;;;-6.60;69.20;;;;;;5134934;27;20200;-66
2022/12/18 00:06:32;;;;;;;49.55;27.20;;;-6.60;69.20;;;;;;5131980;27;20213;-64
2022/12/18 00:09:03;;;;;;;53.10;25.30;;;-6.50;69.40;;;;;;5135062;27;20702;-65
2022/12/18 00:11:32;;;;;;;49.38;24.58;;;-6.50;69.40;;;;;;5133742;27;20199;-64
2022/12/18 00:14:01;;;;;;;53.67;24.35;;;-6.50;69.30;;;;;;5149025;27;20197;-65
2022/12/18 00:16:29;;;;;;;49.22;25.38;;;-6.50;69.30;;;;;;5135524;27;20205;-65
2022/12/18 00:18:58;;;;;;;49.28;25.42;;;-6.40;69.30;;;;;;5128533;27;20289;-66
2022/12/18 00:21:27;;;;;;;45.45;25.15;;;-6.40;69.30;;;;;;5134564;27;20206;-65
2022/12/18 00:23:55;;;;;;;44.92;23.38;;;-6.50;69.10;;;;;;5136058;27;20685;-65
2022/12/18 00:26:26;;;;;;;52.30;26.38;;;-6.40;69.00;;;;;;5119317;27;20709;-65
2022/12/18 00:29:00;;;;;;;51.22;25.77;;;-6.50;68.80;;;;;;5135017;27;20219;-65
2022/12/18 00:31:30;;;;;;;44.35;25.42;;;-6.50;68.90;;;;;;5115208;27;20881;-66
2022/12/18 00:34:01;;;;;;;51.53;24.77;;;-6.50;69.10;;;;;;5114249;27;20209;-66
2022/12/18 00:36:31;;;;;;;48.92;24.48;;;-6.50;69.10;;;;;;5134257;27;20198;-66
2022/12/18 00:39:01;;;;;;;61.55;26.00;;;-6.50;69.10;;;;;;5117793;27;20275;-65
2022/12/18 00:44:18;;;;;;;60.05;26.65;;;-6.50;69.00;;;;;;5121180;27;20216;-66
2022/12/18 00:46:47;;;;;;;54.72;26.80;;;-6.60;68.90;;;;;;5151706;27;20194;-64
2022/12/18 00:49:15;;;;;;;51.90;27.17;;;-6.60;68.90;;;;;;5132585;27;20245;-66
2022/12/18 00:51:44;;;;;;;52.50;27.75;;;-6.60;69.00;;;;;;5136640;27;20202;-63
2022/12/18 00:54:13;;;;;;;58.63;26.73;;;-6.60;69.00;;;;;;5136655;27;20193;-63
2022/12/18 00:56:42;;;;;;;53.53;27.65;;;-6.50;69.00;;;;;;5136375;27;20205;-66
2022/12/18 00:59:17;;;;;;;51.47;26.25;;;-6.50;69.00;;;;;;5135649;27;20680;-65
2022/12/18 01:01:46;;;;;;;54.60;25.58;;;-6.50;68.90;;;;;;5138743;27;20215;-65
2022/12/18 01:04:15;;;;;;;52.55;27.73;;;-6.50;68.90;;;;;;5129947;27;20205;-64
2022/12/18 01:06:46;;;;;;;51.85;26.63;;;-6.50;68.70;;;;;;5152503;27;20194;-65
2022/12/18 01:09:14;;;;;;;60.08;29.05;;;-6.50;68.70;;;;;;5134654;27;20226;-65
2022/12/18 01:11:43;;;;;;;72.93;31.48;;;-6.50;68.60;;;;;;5123401;27;20278;-66
2022/12/18 01:14:11;;;;;;;64.30;30.13;;;-6.60;68.50;;;;;;5133485;27;20206;-65
2022/12/18 01:16:39;;;;;;;53.75;26.67;;;-6.60;68.40;;;;;;5116822;27;20766;-65
2022/12/18 01:19:07;;;;;;;47.70;27.25;;;-6.70;68.30;;;;;;5117556;27;20927;-66
2022/12/18 01:21:36;;;;;;;56.60;29.00;;;-6.70;68.30;;;;;;5138094;27;20214;-66
2022/12/18 01:24:05;;;;;;;57.63;28.85;;;-6.90;68.10;;;;;;5136829;27;20266;-66
2022/12/18 01:26:34;;;;;;;54.45;26.45;;;-6.90;68.20;;;;;;5128530;27;20197;-65
2022/12/18 01:29:03;;;;;;;48.70;24.85;;;-7.00;68.40;;;;;;5136884;27;20863;-66
2022/12/18 01:31:33;;;;;;;53.90;26.90;;;-7.00;68.50;;;;;;5119662;27;20807;-66
2022/12/18 01:34:04;;;;;;;62.00;28.85;;;-6.90;68.60;;;;;;5133809;27;20194;-66
2022/12/18 01:36:34;;;;;;;92.43;38.50;;;-7.00;68.50;;;;;;5131846;27;20275;-65
2022/12/18 01:39:04;;;;;;;87.53;33.78;;;-7.00;68.50;;;;;;5136761;27;20286;-64
2022/12/18 01:45:01;;;;;;;73.82;32.40;;;-7.00;68.60;;;;;;5124931;27;20681;-66
2022/12/18 01:47:38;;;;;;;60.28;27.83;;;-6.90;68.70;;;;;;5091457;27;20345;-67
2022/12/18 01:50:11;;;;;;;59.50;26.05;;;-6.90;68.50;;;;;;5143543;27;20281;-65
2022/12/18 01:52:40;;;;;;;65.25;30.25;;;-7.00;68.40;;;;;;5142869;27;20226;-67
2022/12/18 01:55:10;;;;;;;54.20;27.48;;;-7.00;68.30;;;;;;5118180;27;20216;-67
2022/12/18 01:57:39;;;;;;;61.35;27.38;;;-7.10;68.30;;;;;;5152009;27;20689;-66
2022/12/18 02:00:10;;;;;;;48.75;25.05;;;-7.10;68.30;;;;;;5138533;27;20298;-66
2022/12/18 02:02:45;;;;;;;62.45;30.95;;;-7.10;68.50;;;;;;5119291;27;20226;-66
2022/12/18 02:05:17;;;;;;;65.00;27.70;;;-7.00;68.60;;;;;;5125510;27;20201;-66
2022/12/18 02:07:59;;;;;;;56.75;27.38;;;-7.00;68.50;;;;;;5125057;27;20662;-66
2022/12/18 02:10:32;;;;;;;59.72;27.38;;;-7.00;68.50;;;;;;5118048;27;20685;-66
2022/12/18 02:13:11;;;;;;;59.03;26.40;;;-7.00;68.50;;;;;;5134026;27;20722;-66
2022/12/18 02:15:44;;;;;;;64.03;29.15;;;-7.00;68.60;;;;;;5126586;27;20212;-66
2022/12/18 02:18:19;;;;;;;55.60;27.10;;;-6.90;68.60;;;;;;5115944;27;20240;-66
2022/12/18 02:20:53;;;;;;;51.40;26.67;;;-6.90;68.60;;;;;;5134930;27;20197;-66
2022/12/18 02:23:38;;;;;;;54.17;27.25;;;-6.90;68.60;;;;;;5116093;27;20314;-66
2022/12/18 02:26:19;;;;;;;55.58;29.88;;;-6.80;68.50;;;;;;5123464;27;20380;-66
2022/12/18 02:28:55;;;;;;;66.18;27.65;;;-6.90;68.10;;;;;;5122608;27;20955;-65
2022/12/18 02:31:29;;;;;;;53.53;28.25;;;-7.00;68.00;;;;;;5124059;27;20202;-66
2022/12/18 02:34:03;;;;;;;63.88;27.20;;;-7.00;68.10;;;;;;5130229;27;20659;-66
2022/12/18 02:36:38;;;;;;;57.75;29.45;;;-7.10;68.20;;;;;;5116512;27;20192;-66
2022/12/18 02:39:09;;;;;;;59.95;25.08;;;-7.00;68.40;;;;;;5126294;27;20229;-65
2022/12/18 02:41:43;;;;;;;53.65;25.85;;;-7.00;68.40;;;;;;5115260;27;20423;-66
2022/12/18 02:44:13;;;;;;;53.40;27.05;;;-7.00;68.40;;;;;;5132003;27;20197;-66
2022/12/18 02:46:45;;;;;;;50.03;27.48;;;-7.00;68.40;;;;;;5117931;27;20772;-66
2022/12/18 02:49:27;;;;;;;46.58;27.13;;;-7.00;68.40;;;;;;5119766;27;20239;-66
2022/12/18 02:52:06;;;;;;;47.45;25.10;;;-6.90;68.40;;;;;;5149472;27;20201;-65
2022/12/18 02:54:46;;;;;;;61.65;27.17;;;-6.90;68.30;;;;;;5113917;27;20201;-66
2022/12/18 02:57:23;;;;;;;54.78;25.10;;;-6.90;68.30;;;;;;5122241;27;20339;-65
2022/12/18 02:59:59;;;;;;;49.58;25.55;;;-6.90;68.20;;;;;;5132796;27;20320;-65
2022/12/18 03:02:34;;;;;;;54.15;27.77;;;-7.00;68.20;;;;;;5121971;27;20215;-66
2022/12/18 03:05:06;;;;;;;45.60;25.10;;;-7.00;68.00;;;;;;5129599;27;20205;-66
2022/12/18 03:07:40;;;;;;;47.83;24.35;;;-7.10;68.00;;;;;;5146483;27;20212;-66
2022/12/18 03:10:15;;;;;;;57.08;28.00;;;-7.10;68.10;;;;;;5116200;27;20229;-66
2022/12/18 03:12:51;;;;;;;58.15;28.88;;;-7.00;68.20;;;;;;5115788;27;20205;-66
2022/12/18 03:15:24;;;;;;;59.45;27.45;;;-7.10;67.90;;;;;;5116677;27;20217;-66
2022/12/18 03:18:03;;;;;;;54.08;26.10;;;-7.20;67.80;;;;;;5118665;27;20196;-65
2022/12/18 03:20:35;;;;;;;85.72;36.60;;;-7.20;67.90;;;;;;5111185;27;21129;-66
2022/12/18 03:23:08;;;;;;;77.05;34.70;;;-7.30;67.80;;;;;;5117014;27;20210;-66
2022/12/18 03:25:42;;;;;;;71.55;30.33;;;-7.30;67.60;;;;;;5117123;27;20320;-65
2022/12/18 03:28:15;;;;;;;69.60;33.20;;;-7.40;67.80;;;;;;5122741;27;20244;-66
2022/12/18 03:30:46;;;;;;;54.60;29.33;;;-7.40;67.90;;;;;;5115203;27;20208;-65
2022/12/18 03:33:19;;;;;;;57.35;29.05;;;-7.40;67.80;;;;;;5114852;27;20209;-65
2022/12/18 03:35:50;;;;;;;60.28;26.90;;;-7.50;67.70;;;;;;5131035;27;20212;-65
2022/12/18 03:38:19;;;;;;;49.42;28.45;;;-7.50;67.80;;;;;;5144349;27;20217;-65
2022/12/18 03:41:00;;;;;;;62.55;28.65;;;-7.50;68.10;;;;;;5112389;27;20296;-65
2022/12/18 03:43:43;;;;;;;50.72;27.08;;;-7.40;68.30;;;;;;5130545;27;20214;-66
2022/12/18 03:46:19;;;;;;;52.10;26.83;;;-7.30;68.20;;;;;;5146392;27;20242;-66
2022/12/18 03:48:53;;;;;;;52.67;25.60;;;-7.30;68.20;;;;;;5132697;27;20262;-66
2022/12/18 03:51:27;;;;;;;53.63;26.50;;;-7.30;68.20;;;;;;5129340;27;20255;-65
2022/12/18 03:53:59;;;;;;;57.38;27.90;;;-7.30;68.20;;;;;;5148465;27;20197;-66
2022/12/18 03:56:36;;;;;;;46.78;25.77;;;-7.20;68.20;;;;;;5114618;27;20220;-66
2022/12/18 03:59:08;;;;;;;51.83;24.98;;;-7.20;68.20;;;;;;5115830;27;20253;-65
2022/12/18 04:01:41;;;;;;;64.05;30.20;;;-7.20;68.00;;;;;;5116612;27;20739;-65
2022/12/18 04:04:14;;;;;;;48.75;28.98;;;-7.30;67.90;;;;;;5116289;27;20937;-65
2022/12/18 04:06:46;;;;;;;62.42;30.63;;;-7.30;68.00;;;;;;5115066;27;20304;-65
2022/12/18 04:09:14;;;;;;;52.28;28.30;;;-7.30;67.90;;;;;;5115212;27;20239;-66
2022/12/18 04:11:47;;;;;;;65.90;30.30;;;-7.30;67.80;;;;;;5122733;27;20206;-65
2022/12/18 04:14:18;;;;;;;48.67;26.20;;;-7.40;67.70;;;;;;5115613;27;20615;-65
2022/12/18 04:16:50;;;;;;;63.80;25.92;;;-7.40;67.70;;;;;;5114039;27;20194;-65
2022/12/18 04:19:21;;;;;;;57.50;27.48;;;-7.50;67.90;;;;;;5112387;27;20233;-65
2022/12/18 04:21:51;;;;;;;54.10;24.80;;;-7.40;68.00;;;;;;5147275;27;20202;-66
2022/12/18 04:24:19;;;;;;;49.17;25.20;;;-7.40;68.00;;;;;;5116903;27;20247;-65
2022/12/18 04:27:12;;;;;;;63.80;28.65;;;-7.30;68.00;;;;;;5113843;27;20205;-65
2022/12/18 04:29:45;;;;;;;68.15;31.92;;;-7.40;67.80;;;;;;5111287;27;20257;-65
2022/12/18 04:32:14;;;;;;;68.28;30.60;;;-7.40;67.80;;;;;;5146287;27;20212;-65
2022/12/18 04:34:44;;;;;;;50.67;24.35;;;-7.40;67.90;;;;;;5118523;27;20376;-66
2022/12/18 04:37:12;;;;;;;42.78;21.70;;;-7.40;68.00;;;;;;5129744;27;20202;-65
2022/12/18 04:39:41;;;;;;;42.78;23.65;;;-7.30;68.00;;;;;;5113421;27;20228;-65
2022/12/18 04:42:15;;;;;;;46.58;23.63;;;-7.30;67.80;;;;;;5114879;27;20201;-66
2022/12/18 04:44:45;;;;;;;52.25;24.80;;;-7.40;67.80;;;;;;5128853;27;20275;-66
2022/12/18 04:47:13;;;;;;;53.22;25.10;;;-7.40;67.70;;;;;;5133190;27;20922;-65
2022/12/18 04:49:41;;;;;;;55.08;25.08;;;-7.40;67.80;;;;;;5117399;27;20980;-65
2022/12/18 04:52:08;;;;;;;47.92;26.05;;;-7.40;67.80;;;;;;5127912;27;20285;-65
2022/12/18 04:54:36;;;;;;;44.00;23.05;;;-7.40;67.70;;;;;;5133634;27;20529;-66
2022/12/18 04:57:04;;;;;;;55.58;26.35;;;-7.50;67.30;;;;;;5138501;27;20223;-66
2022/12/18 04:59:32;;;;;;;54.38;25.85;;;-7.60;67.00;;;;;;5137922;27;20270;-65
2022/12/18 05:02:01;;;;;;;46.38;23.83;;;-7.70;67.00;;;;;;5128315;27;20202;-65
2022/12/18 05:04:30;;;;;;;46.55;23.27;;;-7.80;67.20;;;;;;5134559;27;20234;-65
2022/12/18 05:06:58;;;;;;;40.78;22.55;;;-7.80;67.30;;;;;;5136056;27;21274;-65
2022/12/18 05:09:25;;;;;;;48.05;23.50;;;-7.80;67.50;;;;;;5136603;27;20221;-65
2022/12/18 05:11:53;;;;;;;80.63;34.60;;;-7.90;67.50;;;;;;5137709;27;20834;-65
2022/12/18 05:14:21;;;;;;;69.53;31.92;;;-7.90;67.50;;;;;;5140450;27;20274;-65
2022/12/18 05:16:49;;;;;;;64.30;29.05;;;-7.90;67.50;;;;;;5135826;27;20229;-65
2022/12/18 05:19:19;;;;;;;64.35;28.67;;;-7.90;67.70;;;;;;5135532;27;20310;-65
2022/12/18 05:21:47;;;;;;;41.55;24.70;;;-7.80;67.80;;;;;;5139114;27;20202;-66
2022/12/18 05:24:15;;;;;;;47.88;25.55;;;-7.80;67.90;;;;;;5138704;27;20205;-65
2022/12/18 05:26:43;;;;;;;42.15;22.05;;;-7.80;67.90;;;;;;5132852;27;20202;-66
2022/12/18 05:29:12;;;;;;;48.45;24.08;;;-7.70;67.80;;;;;;5136279;27;20239;-65
2022/12/18 05:31:41;;;;;;;43.42;22.65;;;-7.70;67.80;;;;;;5116780;27;20189;-65
2022/12/18 05:34:10;;;;;;;47.88;24.88;;;-7.70;67.80;;;;;;5134925;27;20251;-66
2022/12/18 05:36:40;;;;;;;42.85;23.13;;;-7.60;67.80;;;;;;5141210;27;20193;-65
2022/12/18 05:39:09;;;;;;;57.45;26.17;;;-7.60;67.80;;;;;;5138264;27;20230;-66
2022/12/18 05:41:37;;;;;;;49.25;24.02;;;-7.60;67.50;;;;;;5140881;27;20197;-65
2022/12/18 05:44:05;;;;;;;44.42;22.95;;;-7.70;67.40;;;;;;5141217;27;20217;-66
2022/12/18 05:46:33;;;;;;;44.35;24.40;;;-7.70;67.50;;;;;;5137788;27;20198;-65
2022/12/18 05:49:01;;;;;;;50.10;24.73;;;-7.70;67.60;;;;;;5137434;27;20221;-65
2022/12/18 05:51:29;;;;;;;49.45;24.10;;;-7.70;67.40;;;;;;5135855;27;20206;-66
2022/12/18 05:53:58;;;;;;;49.55;25.85;;;-7.80;67.50;;;;;;5136647;27;20814;-66
2022/12/18 05:56:26;;;;;;;48.47;24.23;;;-7.80;67.60;;;;;;5137952;27;20217;-65
2022/12/18 05:58:55;;;;;;;53.03;26.05;;;-7.80;67.60;;;;;;5139566;27;20224;-65
2022/12/18 06:01:26;;;;;;;46.28;25.30;;;-7.70;67.60;;;;;;5136691;27;20217;-66
2022/12/18 06:03:54;;;;;;;45.60;23.38;;;-7.70;67.60;;;;;;5136036;27;20214;-65
2022/12/18 06:06:24;;;;;;;45.47;23.42;;;-7.70;67.70;;;;;;5134238;27;20671;-65
2022/12/18 06:08:53;;;;;;;45.10;23.17;;;-7.70;67.60;;;;;;5136347;27;20310;-66
2022/12/18 06:11:24;;;;;;;45.17;22.08;;;-7.60;67.60;;;;;;5134892;27;20217;-65
2022/12/18 06:13:54;;;;;;;49.67;22.58;;;-7.60;67.60;;;;;;5130364;27;20197;-66
2022/12/18 06:16:26;;;;;;;46.97;23.35;;;-7.60;67.60;;;;;;5131967;27;20206;-66
2022/12/18 06:18:56;;;;;;;51.10;25.48;;;-7.60;67.50;;;;;;5135864;27;20761;-65
2022/12/18 06:21:24;;;;;;;46.28;23.23;;;-7.60;67.50;;;;;;5135356;27;20202;-65
2022/12/18 06:23:52;;;;;;;42.45;21.75;;;-7.60;67.50;;;;;;5139593;27;20644;-66
2022/12/18 06:26:21;;;;;;;42.70;23.50;;;-7.60;67.50;;;;;;5131684;27;20283;-65
2022/12/18 06:28:55;;;;;;;42.58;24.13;;;-7.60;67.50;;;;;;5137578;27;20232;-65
2022/12/18 06:31:23;;;;;;;39.80;23.33;;;-7.60;67.40;;;;;;5134865;27;20278;-66
2022/12/18 06:33:51;;;;;;;54.83;26.25;;;-7.60;67.40;;;;;;5137030;27;20258;-66
2022/12/18 06:36:19;;;;;;;41.10;22.95;;;-7.60;67.40;;;;;;5134097;27;20261;-65
2022/12/18 06:38:47;;;;;;;50.85;26.80;;;-7.60;67.40;;;;;;5134794;27;20286;-65
2022/12/18 06:41:17;;;;;;;60.70;26.77;;;-7.60;67.40;;;;;;5136366;27;20210;-65
2022/12/18 06:43:47;;;;;;;79.20;36.53;;;-7.60;67.60;;;;;;5135985;27;20205;-66
2022/12/18 06:46:15;;;;;;;88.10;36.92;;;-7.50;68.00;;;;;;5130396;27;20209;-66
2022/12/18 06:48:43;;;;;;;85.63;34.60;;;-7.50;68.00;;;;;;5128234;27;20229;-66
2022/12/18 06:51:11;;;;;;;75.53;33.28;;;-7.60;68.60;;;;;;5115638;27;20210;-66
2022/12/18 06:53:39;;;;;;;70.60;31.92;;;-7.60;68.70;;;;;;5138516;27;20228;-66
2022/12/18 06:56:08;;;;;;;77.22;34.08;;;-7.60;68.70;;;;;;5115762;27;20285;-66
2022/12/18 06:58:38;;;;;;;104.35;38.80;;;-7.60;69.00;;;;;;5128718;27;20225;-66
2022/12/18 07:01:09;;;;;;;90.63;37.05;;;-7.50;69.40;;;;;;5116288;27;20210;-66
2022/12/18 07:03:38;;;;;;;79.20;32.42;;;-7.50;69.20;;;;;;5125067;27;20209;-65
2022/12/18 07:06:13;;;;;;;72.75;30.05;;;-7.50;69.30;;;;;;5129042;27;20257;-66
2022/12/18 07:08:41;;;;;;;70.22;29.50;;;-7.40;69.10;;;;;;5134077;27;20306;-66
2022/12/18 07:11:09;;;;;;;79.72;31.35;;;-7.30;69.30;;;;;;5131992;27;20710;-67
2022/12/18 07:13:37;;;;;;;76.28;32.65;;;-7.30;70.30;;;;;;5118579;27;20278;-66
2022/12/18 07:16:09;;;;;;;86.63;35.05;;;-7.30;70.00;;;;;;5133658;27;20213;-67
2022/12/18 07:18:47;;;;;;;77.63;32.10;;;-7.20;69.60;;;;;;5133876;27;20325;-66
2022/12/18 07:21:17;;;;;;;92.88;34.38;;;-7.20;70.00;;;;;;5130463;27;20263;-66
2022/12/18 07:23:47;;;;;;;79.65;35.65;;;-7.10;69.90;;;;;;5141376;27;20794;-66
2022/12/18 07:26:17;;;;;;;82.00;35.05;;;-7.10;70.10;;;;;;5133287;27;20225;-66
2022/12/18 07:28:45;;;;;;;80.95;34.33;;;-7.10;70.40;;;;;;5133477;27;20281;-66
2022/12/18 07:31:16;;;;;;;74.15;32.17;;;-7.00;70.80;;;;;;5130667;27;20194;-65
2022/12/18 07:33:44;;;;;;;85.32;36.10;;;-7.00;70.40;;;;;;5133819;27;20229;-66
2022/12/18 07:36:12;;;;;;;75.53;34.33;;;-7.00;70.70;;;;;;5131895;27;20197;-66
2022/12/18 07:38:40;;;;;;;83.07;32.95;;;-6.90;70.60;;;;;;5134244;27;20228;-65
2022/12/18 07:41:11;;;;;;;76.82;30.42;;;-6.90;71.20;;;;;;5136793;27;20250;-65
2022/12/18 07:43:41;;;;;;;76.28;34.63;;;-6.90;71.10;;;;;;5137718;27;20198;-65
2022/12/18 07:46:12;;;;;;;96.07;36.75;;;-6.90;71.20;;;;;;5139917;27;20289;-65
2022/12/18 07:48:41;;;;;;;80.38;34.05;;;-6.90;71.30;;;;;;5130047;27;20231;-65
2022/12/18 07:51:11;;;;;;;82.20;33.00;;;-6.80;71.70;;;;;;5134063;27;20202;-65
2022/12/18 07:53:39;;;;;;;97.18;36.97;;;-6.80;71.30;;;;;;5134687;27;20259;-65
2022/12/18 07:56:11;;;;;;;95.25;36.00;;;-6.70;71.70;;;;;;5133071;27;20232;-65
2022/12/18 07:58:57;;;;;;;81.95;31.85;;;-6.70;71.60;;;;;;5129430;27;20229;-65
2022/12/18 08:01:25;;;;;;;80.38;31.42;;;-6.70;72.30;;;;;;5126539;27;20308;-65
2022/12/18 08:03:55;;;;;;;80.60;32.22;;;-6.60;72.60;;;;;;5135418;27;20201;-65
2022/12/18 08:06:23;;;;;;;92.47;34.83;;;-6.60;72.40;;;;;;5131051;27;20704;-65
2022/12/18 08:08:53;;;;;;;89.00;35.95;;;-6.60;72.50;;;;;;5130605;27;20309;-65
2022/12/18 08:11:21;;;;;;;110.93;43.42;;;-6.60;73.40;;;;;;5135075;27;20258;-65
2022/12/18 08:13:49;;;;;;;110.38;40.92;;;-6.50;72.80;;;;;;5132883;27;20202;-65
2022/12/18 08:16:18;;;;;;;91.85;33.78;;;-6.50;72.50;;;;;;5135282;27;20257;-65
2022/12/18 08:18:47;;;;;;;94.70;36.38;;;-6.50;73.40;;;;;;5136356;27;20874;-65
2022/12/18 08:21:20;;;;;;;94.85;37.67;;;-6.40;72.90;;;;;;5131350;27;20210;-65
2022/12/18 08:23:49;;;;;;;100.65;36.40;;;-6.40;74.30;;;;;;5134594;27;20198;-65
2022/12/18 08:26:19;;;;;;;100.90;35.70;;;-6.40;73.30;;;;;;5132667;27;20216;-65
2022/12/18 08:28:49;;;;;;;87.88;36.63;;;-6.30;74.10;;;;;;5134844;27;20756;-65
2022/12/18 08:31:18;;;;;;;94.60;34.17;;;-6.30;74.40;;;;;;5134231;27;20654;-65
2022/12/18 08:33:48;;;;;;;99.38;36.03;;;-6.30;74.90;;;;;;5135587;27;20202;-65
2022/12/18 08:36:18;;;;;;;101.38;39.22;;;-6.20;73.70;;;;;;5130277;27;20193;-65
2022/12/18 08:38:46;;;;;;;86.20;32.13;;;-6.10;73.50;;;;;;5134377;27;20792;-65
2022/12/18 08:41:16;;;;;;;104.05;38.88;;;-6.10;74.10;;;;;;5139215;27;20197;-65
2022/12/18 08:46:34;;;;;;;93.60;37.33;;;-6.00;74.00;;;;;;5142254;27;20201;-67
2022/12/18 08:49:03;;;;;;;84.50;39.97;;;-5.90;73.80;;;;;;5138038;27;20217;-67
2022/12/18 08:51:33;;;;;;;74.78;35.05;;;-5.80;73.80;;;;;;5123871;27;20205;-67
2022/12/18 08:54:01;;;;;;;95.85;35.38;;;-5.70;73.80;;;;;;5139198;27;20209;-66
2022/12/18 08:56:30;;;;;;;90.85;37.85;;;-5.70;73.80;;;;;;5144306;27;20604;-67
2022/12/18 08:58:58;;;;;;;103.03;33.92;;;-5.60;73.90;;;;;;5134275;27;20973;-66
2022/12/18 09:01:26;;;;;;;96.35;36.50;;;-5.50;74.40;;;;;;5128053;27;20216;-66
2022/12/18 09:03:54;;;;;;;88.93;35.72;;;-5.50;74.20;;;;;;5130219;27;20202;-66
2022/12/18 09:06:23;;;;;;;99.93;37.33;;;-5.50;74.40;;;;;;5131249;27;20202;-66
2022/12/18 09:08:53;;;;;;;100.55;37.80;;;-5.40;74.30;;;;;;5132126;27;20282;-65
2022/12/18 09:11:23;;;;;;;74.47;33.00;;;-5.30;74.40;;;;;;5126662;27;20748;-66
2022/12/18 09:13:52;;;;;;;88.20;38.40;;;-5.30;74.80;;;;;;5136239;27;20205;-65
2022/12/18 09:16:20;;;;;;;91.03;35.35;;;-5.30;74.70;;;;;;5132151;27;20726;-66
2022/12/18 09:18:53;;;;;;;96.70;42.78;;;-5.20;75.00;;;;;;5138115;27;20735;-66
2022/12/18 09:21:21;;;;;;;72.22;34.15;;;-5.20;75.30;;;;;;5136111;27;20205;-67
2022/12/18 09:23:50;;;;;;;73.30;32.13;;;-5.20;75.40;;;;;;5136449;27;20206;-66
2022/12/18 09:26:20;;;;;;;74.10;32.97;;;-5.20;75.90;;;;;;5134289;27;20259;-67
2022/12/18 09:28:48;;;;;;;89.13;36.17;;;-5.10;75.20;;;;;;5135846;27;20792;-66
2022/12/18 09:31:19;;;;;;;70.10;31.50;;;-5.00;75.10;;;;;;5133007;27;20278;-66
2022/12/18 09:33:47;;;;;;;76.35;32.95;;;-5.00;75.60;;;;;;5132741;27;20440;-65
2022/12/18 09:36:17;;;;;;;72.80;28.50;;;-4.90;75.30;;;;;;5136920;27;20691;-65
2022/12/18 09:38:45;;;;;;;74.28;31.73;;;-4.90;75.80;;;;;;5137483;27;20208;-65
2022/12/18 09:41:45;;;;;;;74.75;29.95;;;-4.80;75.70;;;;;;5133817;27;20201;-66
2022/12/18 09:44:26;;;;;;;74.82;31.67;;;-4.80;76.20;;;;;;5134031;27;20261;-66
2022/12/18 09:47:09;;;;;;;89.50;35.45;;;-4.70;76.00;;;;;;5135426;27;20210;-66
2022/12/18 09:49:41;;;;;;;71.72;29.52;;;-4.70;76.80;;;;;;5133956;27;20233;-66
2022/12/18 09:52:15;;;;;;;68.35;30.15;;;-4.70;76.60;;;;;;5134089;27;20829;-66
2022/12/18 09:54:47;;;;;;;74.28;30.45;;;-4.60;76.60;;;;;;5131673;27;21019;-66
2022/12/18 09:57:21;;;;;;;75.25;32.92;;;-4.60;75.90;;;;;;5138131;27;20214;-66
2022/12/18 09:59:54;;;;;;;70.22;29.13;;;-4.50;76.40;;;;;;5134002;27;20312;-65
2022/12/18 10:02:24;;;;;;;62.35;28.13;;;-4.50;76.40;;;;;;5134997;27;20202;-66
2022/12/18 10:05:03;;;;;;;66.55;28.40;;;-4.40;76.30;;;;;;5140096;27;20190;-65
2022/12/18 10:07:44;;;;;;;76.75;28.73;;;-4.30;76.10;;;;;;5132750;27;20288;-66
2022/12/18 10:10:26;;;;;;;62.97;25.77;;;-4.30;76.50;;;;;;5133803;27;20233;-66
2022/12/18 10:13:06;;;;;;;61.88;25.52;;;-4.20;76.50;;;;;;5134092;27;20251;-66
2022/12/18 10:15:40;;;;;;;63.92;25.83;;;-4.20;76.50;;;;;;5137739;27;20681;-65
2022/12/18 10:18:22;;;;;;;75.05;28.40;;;-4.20;76.70;;;;;;5123206;27;20213;-65
2022/12/18 10:20:54;;;;;;;65.95;27.05;;;-4.10;77.00;;;;;;5134468;27;20186;-66
2022/12/18 10:23:29;;;;;;;71.30;29.23;;;-4.10;76.50;;;;;;5133039;27;20206;-65
2022/12/18 10:26:02;;;;;;;84.93;39.58;;;-4.10;77.00;;;;;;5134287;27;22521;-66
2022/12/18 10:28:33;;;;;;;66.57;26.98;;;-4.00;76.60;;;;;;5130459;27;20318;-65
2022/12/18 10:31:02;;;;;;;61.13;25.70;;;-3.90;77.10;;;;;;5126614;27;20269;-65
2022/12/18 10:33:33;;;;;;;62.20;25.23;;;-3.90;76.70;;;;;;5133141;27;20730;-66
2022/12/18 10:36:02;;;;;;;69.57;31.45;;;-3.90;76.80;;;;;;5133000;27;20205;-66
2022/12/18 10:38:32;;;;;;;70.32;31.20;;;-3.80;77.10;;;;;;5128953;27;20267;-66
2022/12/18 10:41:02;;;;;;;75.78;30.13;;;-3.80;76.90;;;;;;5127584;27;20185;-66
2022/12/18 10:43:33;;;;;;;64.13;28.40;;;-3.70;77.10;;;;;;5135660;27;20201;-66
2022/12/18 10:46:14;;;;;;;73.68;30.13;;;-3.70;77.50;;;;;;5132393;27;20282;-65
2022/12/18 10:48:52;;;;;;;61.38;27.60;;;-3.70;77.50;;;;;;5130146;27;20914;-65
2022/12/18 10:51:23;;;;;;;63.38;28.55;;;-3.70;77.30;;;;;;5131097;27;20194;-66
2022/12/18 10:54:01;;;;;;;65.35;28.35;;;-3.60;77.40;;;;;;5134501;27;20190;-66
2022/12/18 10:56:31;;;;;;;66.22;29.02;;;-3.60;77.60;;;;;;5134965;27;20212;-66
2022/12/18 10:59:04;;;;;;;73.25;28.73;;;-3.50;77.40;;;;;;5136757;27;20247;-66
2022/12/18 11:01:48;;;;;;;69.03;30.80;;;-3.50;77.30;;;;;;5131852;27;20280;-66
2022/12/18 11:04:19;;;;;;;71.85;28.27;;;-3.50;77.90;;;;;;5148473;27;20288;-66
2022/12/18 11:06:56;;;;;;;69.22;28.77;;;-3.40;78.10;;;;;;5136358;27;20222;-66
2022/12/18 11:09:25;;;;;;;73.15;29.15;;;-3.40;77.90;;;;;;5137777;27;20237;-66
2022/12/18 11:11:55;;;;;;;60.92;29.65;;;-3.40;77.90;;;;;;5135118;27;20228;-66
2022/12/18 11:14:27;;;;;;;68.88;30.27;;;-3.40;78.20;;;;;;5135361;27;20255;-66
2022/12/18 11:16:58;;;;;;;63.85;29.55;;;-3.30;77.80;;;;;;5130921;27;20263;-67
2022/12/18 11:19:53;;;;;;;72.38;28.27;;;-3.30;78.00;;;;;;5132938;27;20278;-66
2022/12/18 11:22:26;;;;;;;73.03;28.48;;;-3.30;79.00;;;;;;5133278;27;20196;-66
2022/12/18 11:24:57;;;;;;;64.38;28.05;;;-3.20;78.30;;;;;;5135409;27;20197;-66
2022/12/18 11:27:50;;;;;;;63.90;27.05;;;-3.20;78.20;;;;;;5131896;27;20241;-66
2022/12/18 11:30:25;;;;;;;68.45;29.67;;;-3.20;78.70;;;;;;5134072;27;20238;-66
2022/12/18 11:32:59;;;;;;;68.60;30.63;;;-3.10;78.40;;;;;;5135876;27;20208;-66
2022/12/18 11:35:39;;;;;;;61.40;27.65;;;-3.00;78.40;;;;;;5133628;27;20657;-66
2022/12/18 11:38:17;;;;;;;68.47;26.65;;;-3.00;78.20;;;;;;5133668;27;20209;-67
2022/12/18 11:40:50;;;;;;;66.20;29.85;;;-2.90;78.30;;;;;;5128833;27;20321;-67
2022/12/18 11:43:26;;;;;;;58.15;27.13;;;-2.90;78.40;;;;;;5134072;27;20277;-67
2022/12/18 11:46:00;;;;;;;63.58;28.02;;;-2.90;78.70;;;;;;5119929;27;20201;-66
2022/12/18 11:48:30;;;;;;;58.25;26.98;;;-2.90;78.60;;;;;;5134827;27;20240;-67
2022/12/18 11:51:00;;;;;;;58.38;27.45;;;-2.80;78.80;;;;;;5143435;27;20213;-67
2022/12/18 11:53:28;;;;;;;71.82;30.15;;;-2.80;78.70;;;;;;5135202;27;20208;-66
2022/12/18 11:56:04;;;;;;;65.63;30.95;;;-2.70;78.60;;;;;;5132202;27;20249;-67
2022/12/18 11:58:58;;;;;;;67.40;26.40;;;-2.70;78.50;;;;;;5132117;27;20263;-67
2022/12/18 12:01:40;;;;;;;57.63;25.02;;;-2.60;78.70;;;;;;5134339;27;20217;-66
2022/12/18 12:04:43;;;;;;;53.88;24.80;;;-2.60;78.60;;;;;;5133243;27;20207;-66
2022/12/18 12:07:22;;;;;;;57.45;25.15;;;-2.50;78.70;;;;;;5126152;27;20244;-67
2022/12/18 12:10:00;;;;;;;56.78;26.02;;;-2.50;79.00;;;;;;5135232;27;20290;-67
2022/12/18 12:12:46;;;;;;;58.00;26.83;;;-2.50;78.70;;;;;;5129030;27;20274;-67
2022/12/18 12:15:28;;;;;;;49.30;24.08;;;-2.50;79.10;;;;;;5135617;27;20205;-66
2022/12/18 12:18:04;;;;;;;52.38;23.17;;;-2.50;79.00;;;;;;5135830;27;20767;-66
2022/12/18 12:20:48;;;;;;;58.50;25.05;;;-2.40;79.20;;;;;;5136465;27;20214;-65
2022/12/18 12:23:23;;;;;;;57.13;24.55;;;-2.40;79.20;;;;;;5138301;27;20198;-66
2022/12/18 12:26:02;;;;;;;46.10;23.77;;;-2.40;79.30;;;;;;5134976;27;20193;-66
2022/12/18 12:28:48;;;;;;;54.50;25.23;;;-2.30;79.10;;;;;;5136925;27;20225;-66
2022/12/18 12:31:25;;;;;;;52.40;23.20;;;-2.30;79.00;;;;;;5135993;27;20213;-66
2022/12/18 12:34:02;;;;;;;63.78;23.95;;;-2.30;79.20;;;;;;5147991;27;20225;-66
2022/12/18 12:36:41;;;;;;;48.70;22.35;;;-2.20;79.10;;;;;;5133402;27;20235;-66
2022/12/18 12:39:14;;;;;;;63.90;26.65;;;-2.20;79.00;;;;;;5134773;27;20233;-65
2022/12/18 12:44:35;;;;;;;69.32;25.98;;;-2.10;79.20;;;;;;5137103;27;20212;-66
2022/12/18 12:47:12;;;;;;;52.28;24.20;;;-2.10;79.30;;;;;;5140889;27;20217;-66
2022/12/18 12:49:47;;;;;;;65.65;27.73;;;-2.10;79.40;;;;;;5133498;27;20278;-66
2022/12/18 12:52:26;;;;;;;55.45;23.63;;;-2.10;79.40;;;;;;5133493;27;20193;-66
2022/12/18 12:54:56;;;;;;;56.40;26.55;;;-2.10;79.50;;;;;;5132552;27;20205;-65
2022/12/18 12:57:31;;;;;;;61.25;26.20;;;-2.10;79.80;;;;;;5120547;27;20252;-66
2022/12/18 13:00:04;;;;;;;57.08;25.88;;;-2.10;79.40;;;;;;5135653;27;20344;-66
2022/12/18 13:02:36;;;;;;;60.35;26.17;;;-2.00;79.30;;;;;;5131993;27;20765;-67